Heist-op-den-Berg, Belgium
Current Conditions -  °F | °C
As of 8:50 PM on Tuesday 21 Oct 2014 (Local Time) from EBAW Reporting Station
Broken Clouds Broken Clouds  
Wind Chill: 52°   Ceiling: 4200
Heat Index: 52°   Visibility: 6mi
Dew Point: 43°   Wind: 16mph
Humidity: 71%   Direction: 280°W
Pressure: 29.77"   Gusts: NA
Location:  51.08°N, 4.73°E
Report Text: EBAW 211850Z 28014KT 9999 SCT036CB BKN042 11/06 Q1008 TEMPO 28020G35KT 4000 SHRA
Loading
Personal Weather Stations






























Interactive Weather Map
Tropical Storm Tracking
New forecast layout! Learn more

10-Day Weather Forecast

Advertisements
Track Severe Weather on mobile